Time;durP1;ratioP1;P1;durP2;ratioP2;P2;SDS_P1;SDS_P2;PMS_P1;PMS_P2;Temp;Humidity;BMP_temperature;BMP_pressure;BME280_temperature;BME280_humidity;BME280_pressure;Samples;Min_cycle;Max_cycle;Signal;HPM_P1;HPM_P2
2022/12/31 00:00:13;;;;;;;25.83;18.60;;;;;;;5.86;100.00;143741.75;5093337;28;20570;-63
2022/12/31 00:02:42;;;;;;;25.30;17.80;;;;;;;5.79;100.00;145977.94;5093021;28;20188;-63
2022/12/31 00:05:10;;;;;;;21.17;16.93;;;;;;;5.80;100.00;147380.56;5093043;28;20180;-62
2022/12/31 00:07:36;;;;;;;23.00;17.67;;;;;;;5.38;100.00;139127.16;5092962;28;20213;-63
2022/12/31 00:10:06;;;;;;;27.60;18.90;;;;;;;5.50;100.00;138477.47;5092887;28;20184;-63
2022/12/31 00:12:33;;;;;;;27.57;18.90;;;;;;;5.47;100.00;139646.25;5092976;28;20278;-62
2022/12/31 00:15:00;;;;;;;21.87;18.17;;;;;;;5.46;100.00;139824.41;5092677;28;20188;-63
2022/12/31 00:17:27;;;;;;;29.57;19.93;;;;;;;5.29;100.00;143348.94;5092954;28;20218;-64
2022/12/31 00:19:55;;;;;;;27.37;20.67;;;;;;;5.12;100.00;140056.34;5092968;28;20627;-62
2022/12/31 00:22:22;;;;;;;29.67;19.60;;;;;;;5.10;100.00;133145.97;5092958;28;20609;-62
2022/12/31 00:24:49;;;;;;;28.43;19.47;;;;;;;5.10;100.00;131828.94;5092599;28;20180;-62
2022/12/31 00:27:16;;;;;;;26.50;19.47;;;;;;;4.94;100.00;128834.44;5092415;28;20762;-62
2022/12/31 00:29:43;;;;;;;28.10;19.67;;;;;;;4.88;100.00;113401.28;5092759;28;20557;-62
2022/12/31 00:32:09;;;;;;;30.37;21.67;;;;;;;4.78;100.00;108801.63;5092472;28;20184;-63
2022/12/31 00:34:36;;;;;;;26.93;19.97;;;;;;;4.76;100.00;99332.41;5092475;28;20184;-62
2022/12/31 00:37:05;;;;;;;29.63;20.13;;;;;;;4.87;100.00;88933.38;5092683;28;20558;-63
2022/12/31 00:39:32;;;;;;;33.40;22.30;;;;;;;4.90;100.00;83415.94;5092542;28;20206;-62
2022/12/31 00:41:58;;;;;;;32.77;22.70;;;;;;;4.76;100.00;81124.50;5092065;28;20689;-63
2022/12/31 00:44:25;;;;;;;37.93;23.30;;;;;;;4.75;100.00;79178.06;5092253;28;20188;-62
2022/12/31 00:46:52;;;;;;;35.00;22.67;;;;;;;4.68;100.00;79169.19;5092233;28;20185;-64
2022/12/31 00:49:19;;;;;;;39.10;24.10;;;;;;;4.83;100.00;78217.41;5092278;28;20283;-62
2022/12/31 00:51:46;;;;;;;38.60;26.17;;;;;;;4.92;100.00;73047.47;5092608;28;20760;-64
2022/12/31 00:54:14;;;;;;;35.67;25.43;;;;;;;4.77;100.00;72058.75;5092547;28;20196;-63
2022/12/31 00:56:41;;;;;;;41.37;26.53;;;;;;;5.02;100.00;71442.19;5091855;28;20184;-62
2022/12/31 00:59:08;;;;;;;47.43;26.40;;;;;;;4.64;100.00;75925.03;5091889;28;20184;-62
2022/12/31 01:01:38;;;;;;;37.50;24.33;;;;;;;4.47;100.00;76873.78;5091893;28;20188;-63
2022/12/31 01:04:07;;;;;;;40.40;25.27;;;;;;;4.56;100.00;76885.72;5092140;28;20210;-63
2022/12/31 01:06:34;;;;;;;41.20;27.10;;;;;;;4.73;100.00;70760.44;5091975;28;20188;-62
2022/12/31 01:09:01;;;;;;;41.87;26.87;;;;;;;4.87;100.00;63348.47;5092238;28;20580;-63
2022/12/31 01:11:29;;;;;;;51.13;25.50;;;;;;;4.93;100.00;57229.06;5091695;28;20271;-62
2022/12/31 01:13:58;;;;;;;38.80;26.50;;;;;;;4.96;100.00;54012.91;5092078;28;20566;-62
2022/12/31 01:16:31;;;;;;;39.70;26.77;;;;;;;5.00;100.00;50478.31;5091911;28;20254;-62
2022/12/31 01:18:59;;;;;;;43.10;26.40;;;;;;;5.12;100.00;49844.97;5091675;28;20207;-62
2022/12/31 01:21:27;;;;;;;43.77;28.00;;;;;;;5.13;100.00;56604.63;5091815;28;20215;-63
2022/12/31 01:23:54;;;;;;;48.67;30.40;;;;;;;5.09;100.00;53702.34;5092002;28;20554;-62
2022/12/31 01:26:21;;;;;;;51.57;30.03;;;;;;;5.32;100.00;51470.84;5092098;28;20249;-62
2022/12/31 01:28:49;;;;;;;49.90;29.83;;;;;;;5.43;100.00;48586.06;5091500;28;20238;-62
2022/12/31 01:31:18;;;;;;;52.40;29.83;;;;;;;5.47;100.00;49554.31;5091821;28;20187;-64
2022/12/31 01:33:45;;;;;;;50.60;27.63;;;;;;;5.47;100.00;50840.75;5091592;28;20187;-62
2022/12/31 01:36:14;;;;;;;36.63;24.13;;;;;;;5.35;100.00;61463.72;5091972;28;20618;-62
2022/12/31 01:38:42;;;;;;;43.33;26.50;;;;;;;5.27;100.00;77951.75;5091779;28;20666;-62
2022/12/31 01:41:12;;;;;;;48.03;30.07;;;;;;;5.26;100.00;80869.09;5091758;28;20183;-62
2022/12/31 01:43:50;;;;;;;41.00;23.70;;;;;;;5.22;100.00;78917.81;5091782;28;20212;-63
2022/12/31 01:46:23;;;;;;;46.47;29.03;;;;;;;5.20;100.00;77617.50;5091642;28;20555;-62
2022/12/31 01:48:53;;;;;;;46.37;29.17;;;;;;;5.26;100.00;66943.50;5091784;28;20532;-62
2022/12/31 01:51:21;;;;;;;52.53;29.33;;;;;;;5.31;100.00;62427.16;5091507;28;20192;-62
2022/12/31 01:53:48;;;;;;;32.67;22.67;;;;;;;5.37;100.00;59852.59;5094223;28;20184;-62
2022/12/31 01:56:15;;;;;;;30.53;22.63;;;;;;;5.28;100.00;63392.41;5095770;28;20287;-62
2022/12/31 01:58:46;;;;;;;47.43;26.67;;;;;;;5.36;100.00;68572.28;5095445;28;20200;-62
2022/12/31 02:01:21;;;;;;;39.30;26.83;;;;;;;5.43;100.00;66317.22;5095786;28;20546;-63
2022/12/31 02:03:48;;;;;;;42.53;27.63;;;;;;;5.40;100.00;60823.09;5095225;28;20192;-62
2022/12/31 02:06:20;;;;;;;46.23;27.90;;;;;;;5.54;100.00;56322.22;5095109;28;20192;-62
2022/12/31 02:08:47;;;;;;;46.13;27.17;;;;;;;5.65;100.00;53754.84;5095572;28;20546;-62
2022/12/31 02:11:22;;;;;;;50.47;27.33;;;;;;;5.73;100.00;51507.75;5095581;28;20180;-62
2022/12/31 02:13:49;;;;;;;49.80;27.33;;;;;;;5.78;100.00;50224.03;5095328;28;20653;-63
2022/12/31 02:16:26;;;;;;;48.20;28.10;;;;;;;5.72;100.00;49897.38;5095299;28;20275;-62
2022/12/31 02:18:58;;;;;;;43.13;25.63;;;;;;;5.79;100.00;53445.28;5095166;28;20207;-63
2022/12/31 02:21:46;;;;;;;38.20;26.97;;;;;;;5.73;100.00;62795.16;5095072;28;20629;-63
2022/12/31 02:24:52;;;;;;;48.77;29.47;;;;;;;5.64;100.00;63755.03;5094882;28;20192;-63
2022/12/31 02:27:34;;;;;;;37.73;24.10;;;;;;;5.61;100.00;74754.00;5093563;28;20220;-62
2022/12/31 02:30:10;;;;;;;38.10;24.57;;;;;;;5.49;100.00;77656.28;5094726;28;20275;-63
2022/12/31 02:32:48;;;;;;;39.53;25.03;;;;;;;5.37;100.00;84131.63;5095011;28;20650;-62
2022/12/31 02:35:22;;;;;;;41.47;25.70;;;;;;;5.22;100.00;96148.28;5094724;28;20192;-62
2022/12/31 02:37:57;;;;;;;46.03;26.87;;;;;;;4.92;100.00;100011.84;5094626;28;20262;-62
2022/12/31 02:40:25;;;;;;;49.30;26.60;;;;;;;4.86;100.00;97719.63;5094613;28;20191;-63
2022/12/31 02:42:52;;;;;;;51.80;32.97;;;;;;;4.98;100.00;92528.41;5094597;28;20275;-62
2022/12/31 02:45:27;;;;;;;52.53;29.63;;;;;;;4.95;100.00;88620.50;5094385;28;20195;-62
2022/12/31 02:48:08;;;;;;;49.13;31.20;;;;;;;4.83;100.00;85678.34;5094494;28;20190;-62
2022/12/31 02:50:54;;;;;;;53.73;31.33;;;;;;;4.83;100.00;82107.34;5094205;28;20196;-63
2022/12/31 02:53:37;;;;;;;53.07;33.10;;;;;;;4.64;100.00;82405.53;5094277;28;20659;-62
2022/12/31 02:56:10;;;;;;;58.03;35.83;;;;;;;4.62;100.00;81104.97;5094577;28;20576;-62
2022/12/31 03:04:35;;;;;;;71.57;40.67;;;;;;;4.50;100.00;66857.22;5093552;28;20554;-63
2022/12/31 03:07:04;;;;;;;80.53;45.00;;;;;;;4.50;100.00;66211.13;5094478;28;20604;-64
2022/12/31 03:09:31;;;;;;;84.87;50.37;;;;;;;4.56;100.00;61702.38;5094073;28;20181;-63
2022/12/31 03:14:43;;;;;;;98.17;52.30;;;;;;;4.77;100.00;44999.03;5094023;28;20217;-63
2022/12/31 03:17:12;;;;;;;93.83;50.93;;;;;;;4.69;100.00;47239.13;5094323;28;20670;-62
2022/12/31 03:22:29;;;;;;;89.10;49.97;;;;;;;4.75;100.00;47565.19;5093933;28;20179;-62
2022/12/31 03:27:42;;;;;;;95.80;52.73;;;;;;;4.60;100.00;54943.97;5093814;28;20226;-62
2022/12/31 03:30:10;;;;;;;100.13;55.60;;;;;;;4.45;100.00;56860.44;5093780;28;20188;-63
2022/12/31 03:32:39;;;;;;;128.97;68.83;;;;;;;4.51;100.00;54292.53;5093566;28;20199;-63
2022/12/31 03:35:07;;;;;;;101.53;57.60;;;;;;;4.35;100.00;55241.59;5093951;28;20184;-62
2022/12/31 03:37:34;;;;;;;112.23;60.93;;;;;;;4.41;100.00;56855.97;5094050;28;20591;-63
2022/12/31 03:40:01;;;;;;;106.67;64.10;;;;;;;4.43;100.00;56214.91;5093613;28;20214;-62
2022/12/31 03:42:27;;;;;;;122.43;69.13;;;;;;;4.35;100.00;57493.63;5093558;28;20192;-63
2022/12/31 03:44:54;;;;;;;124.43;71.23;;;;;;;4.23;100.00;58447.03;5093990;28;20586;-63
2022/12/31 03:47:21;;;;;;;130.83;78.13;;;;;;;4.38;100.00;58784.22;5094212;28;20634;-63
2022/12/31 03:49:49;;;;;;;125.53;76.67;;;;;;;4.42;100.00;56535.16;5093854;28;20288;-63
2022/12/31 03:52:16;;;;;;;146.20;85.77;;;;;;;4.51;100.00;53970.94;5094227;28;20187;-62
2022/12/31 03:54:43;;;;;;;124.97;68.40;;;;;;;4.30;100.00;55236.78;5095771;28;20619;-64
2022/12/31 03:57:10;;;;;;;139.33;80.93;;;;;;;4.38;100.00;57818.97;5097182;28;20188;-66
2022/12/31 03:59:37;;;;;;;138.17;76.30;;;;;;;4.34;100.00;55883.91;5097290;28;20204;-64
2022/12/31 04:02:04;;;;;;;136.87;79.77;;;;;;;4.44;100.00;56858.94;5097214;28;20184;-63
2022/12/31 04:04:31;;;;;;;137.30;77.53;;;;;;;4.35;100.00;58781.66;5095208;28;20207;-63
2022/12/31 04:07:00;;;;;;;127.43;72.40;;;;;;;4.36;100.00;59748.16;5096059;28;20195;-63
2022/12/31 04:09:27;;;;;;;144.90;83.97;;;;;;;4.36;100.00;58138.34;5094745;28;20181;-63
2022/12/31 04:11:54;;;;;;;155.83;86.47;;;;;;;4.43;100.00;52356.13;5093592;28;20192;-63
2022/12/31 04:14:21;;;;;;;112.03;63.37;;;;;;;4.46;100.00;50751.84;5093439;28;20262;-62
2022/12/31 04:16:48;;;;;;;109.60;61.10;;;;;;;4.37;100.00;52028.88;5092882;28;20184;-63
2022/12/31 04:19:15;;;;;;;119.63;62.33;;;;;;;4.42;100.00;56856.97;5092934;28;20208;-63
2022/12/31 04:21:42;;;;;;;110.70;64.63;;;;;;;4.28;100.00;58774.50;5092859;28;20180;-62
2022/12/31 04:24:10;;;;;;;104.80;59.60;;;;;;;4.35;100.00;60069.16;5092800;28;20555;-63
2022/12/31 04:26:37;;;;;;;100.50;56.13;;;;;;;4.14;100.00;67784.09;5092947;28;20188;-63
2022/12/31 04:29:04;;;;;;;100.07;55.37;;;;;;;3.92;100.00;67758.31;5092406;28;20243;-63
2022/12/31 04:31:32;;;;;;;109.90;61.60;;;;;;;4.01;100.00;66478.63;5092977;28;20700;-63
2022/12/31 04:33:59;;;;;;;140.10;79.80;;;;;;;4.00;100.00;60677.50;5092500;28;20647;-63
2022/12/31 04:36:26;;;;;;;112.63;65.77;;;;;;;4.23;100.00;51694.91;5092495;28;20214;-62
2022/12/31 04:38:53;;;;;;;111.30;60.60;;;;;;;4.14;100.00;52972.56;5092269;28;20208;-63
2022/12/31 04:41:21;;;;;;;118.07;65.87;;;;;;;4.17;100.00;55545.78;5092287;28;20188;-63
2022/12/31 04:43:49;;;;;;;122.50;64.67;;;;;;;4.23;100.00;56838.16;5092355;28;20184;-59
2022/12/31 04:46:18;;;;;;;127.30;62.73;;;;;;;4.20;100.00;57156.88;5092046;28;20199;-60
2022/12/31 04:48:46;;;;;;;108.57;59.57;;;;;;;4.04;100.00;57784.75;5091944;28;20191;-61
2022/12/31 04:51:13;;;;;;;100.67;54.33;;;;;;;4.00;100.00;60998.94;5091983;28;20188;-60
2022/12/31 04:53:41;;;;;;;107.50;55.70;;;;;;;3.38;100.00;61255.47;5092236;28;20662;-60
2022/12/31 04:56:09;;;;;;;110.47;58.57;;;;;;;3.54;100.00;55164.56;5092257;28;20582;-60
2022/12/31 04:58:39;;;;;;;109.60;57.30;;;;;;;3.29;100.00;52893.94;5091909;28;20212;-60
2022/12/31 05:01:06;;;;;;;112.00;58.80;;;;;;;3.38;100.00;47131.75;5091675;28;20211;-59
2022/12/31 05:03:33;;;;;;;121.50;62.73;;;;;;;3.44;100.00;44254.22;5092082;28;20184;-61
2022/12/31 05:06:02;;;;;;;102.03;57.67;;;;;;;3.46;100.00;41695.94;5091689;28;20195;-61
2022/12/31 05:08:29;;;;;;;106.57;54.97;;;;;;;3.21;100.00;39760.41;5091715;28;20237;-60
2022/12/31 05:10:56;;;;;;;98.47;50.17;;;;;;;3.32;100.00;36253.97;5091683;28;20184;-60
2022/12/31 05:13:24;;;;;;;134.07;69.73;;;;;;;3.27;100.00;34335.53;5091697;28;20180;-60
2022/12/31 05:15:52;;;;;;;101.17;51.93;;;;;;;3.58;100.00;30207.56;5091773;28;20184;-59
2022/12/31 05:18:19;;;;;;;89.77;46.80;;;;;;;3.71;100.00;29576.69;5091752;28;20208;-60
2022/12/31 05:20:46;;;;;;;71.70;41.80;;;;;;;3.67;100.00;31954.31;5091880;28;20558;-60
2022/12/31 05:23:13;;;;;;;84.03;44.60;;;;;;;3.71;100.00;32582.06;5091505;28;20204;-60
2022/12/31 05:25:41;;;;;;;86.30;46.67;;;;;;;3.56;100.00;34021.72;5090872;28;20180;-61
2022/12/31 05:28:08;;;;;;;90.23;51.60;;;;;;;3.75;100.00;32778.88;5091083;28;20232;-59
2022/12/31 05:30:35;;;;;;;93.30;51.37;;;;;;;3.84;100.00;31113.75;5091773;28;20184;-60
2022/12/31 05:33:03;;;;;;;99.80;51.97;;;;;;;3.89;100.00;31168.91;5091399;28;20210;-60
2022/12/31 05:35:30;;;;;;;98.43;53.30;;;;;;;4.05;100.00;28727.75;5091664;28;20192;-59
2022/12/31 05:37:59;;;;;;;111.93;59.03;;;;;;;4.17;100.00;27552.44;5091296;28;20195;-59
2022/12/31 05:40:26;;;;;;;108.77;56.93;;;;;;;4.34;100.00;21782.47;5091646;28;20614;-59
2022/12/31 05:42:52;;;;;;;113.87;59.23;;;;;;;4.33;100.00;20048.47;5091292;28;20184;-60
2022/12/31 05:45:19;;;;;;;114.17;62.93;;;;;;;4.53;100.00;19262.97;5091571;28;20267;-61
2022/12/31 05:47:47;;;;;;;120.87;64.50;;;;;;;4.64;100.00;18786.69;5091591;28;20191;-60
2022/12/31 05:50:16;;;;;;;112.67;59.93;;;;;;;4.78;100.00;18354.19;5091234;28;20194;-60
2022/12/31 05:52:44;;;;;;;123.00;61.97;;;;;;;4.97;100.00;21252.72;5091246;28;20189;-59
2022/12/31 05:55:12;;;;;;;90.13;50.57;;;;;;;5.04;100.00;23571.88;5091158;28;20184;-61
2022/12/31 05:57:39;;;;;;;90.97;51.20;;;;;;;5.09;100.00;28521.84;5091180;28;20200;-60
2022/12/31 06:00:08;;;;;;;90.50;45.40;;;;;;;4.83;100.00;41370.31;5091020;28;20215;-61
2022/12/31 06:02:35;;;;;;;79.80;46.57;;;;;;;5.03;100.00;54700.97;5091131;28;20605;-60
2022/12/31 06:05:02;;;;;;;78.10;45.43;;;;;;;4.90;100.00;62189.84;5091495;28;20527;-60
2022/12/31 06:07:30;;;;;;;79.63;45.93;;;;;;;5.09;100.00;63356.41;5091752;28;20659;-61
2022/12/31 06:09:57;;;;;;;79.93;42.73;;;;;;;4.92;100.00;70353.59;5091409;28;20187;-60
2022/12/31 06:12:24;;;;;;;87.57;46.70;;;;;;;5.22;100.00;64163.25;5091437;28;20242;-60
2022/12/31 06:14:51;;;;;;;79.20;43.60;;;;;;;5.53;100.00;65843.81;5091525;28;20562;-60
2022/12/31 06:17:17;;;;;;;80.20;43.90;;;;;;;5.63;100.00;75860.19;5091072;28;20184;-60
2022/12/31 06:19:44;;;;;;;74.53;42.83;;;;;;;5.84;100.00;87058.38;5091280;28;20239;-61
2022/12/31 06:22:11;;;;;;;70.10;42.07;;;;;;;6.25;100.00;89968.56;5091238;28;20631;-61
2022/12/31 06:24:41;;;;;;;83.40;44.17;;;;;;;7.07;100.00;88842.03;5090943;28;20188;-60
2022/12/31 06:27:07;;;;;;;78.63;43.87;;;;;;;7.42;100.00;120266.88;5091039;28;20320;-59
2022/12/31 06:29:35;;;;;;;75.80;43.23;;;;;;;8.03;100.00;139136.66;5091152;28;20193;-60
2022/12/31 06:32:01;;;;;;;80.23;43.27;;;;;;;8.45;100.00;148169.09;5091186;28;20639;-62
2022/12/31 06:34:28;;;;;;;67.97;43.33;;;;;;;8.94;100.00;148290.28;5090825;28;20189;-60
2022/12/31 06:36:55;;;;;;;78.97;44.10;;;;;;;9.53;100.00;148439.28;5091320;28;20199;-60
2022/12/31 06:39:22;;;;;;;72.07;44.97;;;;;;;10.10;100.00;148580.72;5092297;28;20207;-60
2022/12/31 06:41:50;;;;;;;69.20;44.60;;;;;;;10.09;100.00;148578.25;5094642;28;20191;-60
2022/12/31 06:44:21;;;;;;;72.47;42.80;;;;;;;10.29;100.00;148628.81;5094681;28;20546;-60
2022/12/31 06:46:48;;;;;;;72.10;44.43;;;;;;;10.43;100.00;148664.22;5094747;28;20202;-60
2022/12/31 06:49:14;;;;;;;78.70;44.77;;;;;;;10.54;100.00;148692.00;5094211;28;20188;-60
2022/12/31 06:51:44;;;;;;;76.63;46.23;;;;;;;10.20;100.00;148604.78;5094521;28;20600;-60
2022/12/31 06:54:12;;;;;;;75.63;46.23;;;;;;;10.27;100.00;148623.75;5094458;28;20634;-60
2022/12/31 06:56:39;;;;;;;72.33;44.73;;;;;;;10.58;100.00;148699.59;5094651;28;20630;-61
2022/12/31 06:59:25;;;;;;;76.80;45.47;;;;;;;10.96;100.00;148795.66;5093973;28;20670;-60
2022/12/31 07:02:27;;;;;;;64.93;43.10;;;;;;;11.76;100.00;148996.81;5094412;28;20650;-60
2022/12/31 07:05:08;;;;;;;70.67;44.43;;;;;;;12.67;100.00;149223.41;5061362;28;20195;-60
2022/12/31 07:07:43;;;;;;;68.93;45.03;;;;;;;12.45;100.00;149167.69;5094180;28;20266;-60
2022/12/31 07:10:22;;;;;;;64.20;43.57;;;;;;;12.28;100.00;149125.91;5094012;28;20187;-60
2022/12/31 07:13:01;;;;;;;62.63;42.93;;;;;;;13.16;100.00;149347.53;5094209;28;20638;-61
2022/12/31 07:15:46;;;;;;;62.10;43.13;;;;;;;14.16;100.00;149597.19;5094022;28;20279;-61
2022/12/31 07:18:25;;;;;;;67.53;43.50;;;;;;;14.08;100.00;149578.19;5094033;28;20208;-61
2022/12/31 07:20:52;;;;;;;61.03;41.87;;;;;;;14.49;100.00;149679.63;5093554;28;20198;-60
2022/12/31 07:23:20;;;;;;;57.90;40.93;;;;;;;14.93;100.00;149789.97;5093953;28;20207;-61
2022/12/31 07:25:54;;;;;;;60.47;40.63;;;;;;;15.82;100.00;150014.59;5093651;28;20191;-61
2022/12/31 07:28:36;;;;;;;53.60;36.77;;;;;;;17.04;98.95;150319.38;5093649;28;20227;-60
2022/12/31 07:31:10;;;;;;;50.10;35.93;;;;;;;18.13;88.31;150593.91;5093468;28;20188;-60
2022/12/31 07:33:50;;;;;;;39.83;30.23;;;;;;;18.46;83.54;150677.81;5093540;28;20184;-60
2022/12/31 07:36:30;;;;;;;38.47;28.50;;;;;;;18.78;81.74;150756.75;5093756;28;20570;-60
2022/12/31 07:39:05;;;;;;;38.77;26.67;;;;;;;19.60;76.10;150964.19;5093645;28;20688;-61
2022/12/31 07:41:47;;;;;;;33.47;25.97;;;;;;;19.71;74.38;150992.19;5093270;28;20194;-61
2022/12/31 07:44:29;;;;;;;29.00;23.77;;;;;;;19.65;75.06;150975.66;5093297;28;20196;-61
2022/12/31 07:47:00;;;;;;;23.60;21.33;;;;;;;19.77;72.49;151007.47;5093308;28;20188;-62
2022/12/31 07:49:29;;;;;;;25.73;20.87;;;;;;;19.41;74.92;150917.03;5093323;28;20187;-60
2022/12/31 07:51:57;;;;;;;24.48;21.88;;;;;;;19.88;73.72;151034.19;5093224;28;20236;-61
2022/12/31 07:54:23;;;;;;;28.30;23.88;;;;;;;19.97;73.36;151057.09;5093000;28;20188;-60
2022/12/31 07:56:51;;;;;;;24.35;20.33;;;;;;;20.94;67.02;151301.66;5093289;28;20508;-60
2022/12/31 07:59:34;;;;;;;20.35;18.48;;;;;;;21.72;62.74;151497.97;5092936;28;20210;-61
2022/12/31 08:02:10;;;;;;;19.27;17.30;;;;;;;21.80;60.30;151519.63;5093017;28;20193;-61
2022/12/31 08:04:49;;;;;;;19.58;17.98;;;;;;;21.50;59.99;151441.88;5093221;28;20211;-61
2022/12/31 08:07:22;;;;;;;24.23;18.17;;;;;;;21.39;59.29;151416.38;5093027;28;20192;-62
2022/12/31 08:09:57;;;;;;;19.98;18.15;;;;;;;21.50;59.94;151441.88;5092823;28;20181;-60
2022/12/31 08:12:26;;;;;;;19.80;17.88;;;;;;;22.30;56.78;151645.88;5093029;28;20194;-61
2022/12/31 08:14:53;;;;;;;20.55;18.42;;;;;;;21.91;57.55;151546.38;5092989;28;20192;-62
2022/12/31 08:17:22;;;;;;;21.85;17.27;;;;;;;21.53;59.90;151450.78;5092538;28;20184;-61
2022/12/31 08:19:50;;;;;;;20.70;18.63;;;;;;;21.30;59.77;151393.41;5092512;28;20208;-62
2022/12/31 08:22:35;;;;;;;21.27;19.02;;;;;;;21.13;61.38;151348.88;5092928;28;20268;-61
2022/12/31 08:25:13;;;;;;;19.73;17.92;;;;;;;20.86;63.30;151281.28;5092534;28;20184;-61
2022/12/31 08:27:47;;;;;;;20.77;18.77;;;;;;;20.82;64.94;151271.09;5092522;28;20310;-60
2022/12/31 08:30:16;;;;;;;20.92;18.50;;;;;;;20.84;63.35;151277.44;5092459;28;20191;-61
2022/12/31 08:32:50;;;;;;;21.00;18.75;;;;;;;21.91;58.91;151546.38;5092437;28;20191;-60
2022/12/31 08:35:32;;;;;;;19.35;17.35;;;;;;;21.97;58.92;151561.75;5092256;28;20184;-61
2022/12/31 08:38:07;;;;;;;20.15;18.17;;;;;;;22.83;55.86;151777.31;5092259;28;20191;-61
2022/12/31 08:40:44;;;;;;;20.02;18.30;;;;;;;23.72;52.30;152003.16;5092209;28;20200;-61
2022/12/31 08:43:26;;;;;;;20.48;18.55;;;;;;;24.55;49.87;152212.59;5092509;28;20214;-61
2022/12/31 08:45:53;;;;;;;21.08;18.90;;;;;;;23.78;50.54;152018.50;5091028;28;20574;-61
2022/12/31 08:48:29;;;;;;;20.85;19.05;;;;;;;23.26;52.69;151885.72;5092059;28;20184;-62
2022/12/31 08:50:57;;;;;;;21.23;19.17;;;;;;;23.94;51.50;152059.34;5092343;28;20190;-62
2022/12/31 08:53:25;;;;;;;21.35;19.10;;;;;;;24.25;50.18;152137.28;5092359;28;20202;-61
2022/12/31 08:55:57;;;;;;;21.45;19.35;;;;;;;24.38;49.77;152169.19;5092050;28;20181;-61
2022/12/31 08:58:38;;;;;;;20.80;18.58;;;;;;;24.18;49.52;152118.13;5091037;28;20219;-60
2022/12/31 09:01:07;;;;;;;19.23;17.42;;;;;;;24.27;49.40;152141.13;5091857;28;20587;-60
2022/12/31 09:03:51;;;;;;;19.63;17.90;;;;;;;24.62;48.41;152229.19;5091776;28;20184;-60
2022/12/31 09:06:27;;;;;;;18.92;17.13;;;;;;;23.95;49.96;152061.91;5091799;28;20188;-61
2022/12/31 09:09:01;;;;;;;17.77;16.40;;;;;;;24.16;50.39;152114.28;5091769;28;20661;-61
2022/12/31 09:11:34;;;;;;;19.42;16.10;;;;;;;24.94;48.01;152311.00;5091678;28;20188;-61
2022/12/31 09:14:16;;;;;;;17.67;15.45;;;;;;;25.01;47.64;152328.88;5091714;28;20192;-61
2022/12/31 09:16:55;;;;;;;18.05;16.45;;;;;;;25.61;46.31;152480.97;5092008;28;20184;-61
2022/12/31 09:19:23;;;;;;;17.60;16.00;;;;;;;25.23;46.78;152383.81;5091914;28;20187;-61
2022/12/31 09:21:51;;;;;;;20.20;18.17;;;;;;;25.36;47.25;152417.03;5091690;28;20200;-61
2022/12/31 09:24:18;;;;;;;18.05;16.65;;;;;;;25.32;47.14;152408.13;5091893;28;20258;-61
2022/12/31 09:26:54;;;;;;;18.95;17.27;;;;;;;25.16;47.30;152365.94;5091508;28;20184;-61
2022/12/31 09:29:35;;;;;;;17.67;16.48;;;;;;;25.75;45.88;152516.78;5091502;28;20195;-60
2022/12/31 09:32:12;;;;;;;18.42;16.90;;;;;;;26.51;43.87;152707.28;5088114;28;20195;-61
2022/12/31 09:34:46;;;;;;;20.13;17.92;;;;;;;27.39;42.73;152931.16;5091310;28;20194;-60
2022/12/31 09:37:16;;;;;;;18.35;16.50;;;;;;;28.13;40.73;153118.13;5091791;28;20218;-61
2022/12/31 09:39:45;;;;;;;17.90;16.48;;;;;;;26.39;42.63;152677.91;5091416;28;20204;-61
2022/12/31 09:42:54;;;;;;;16.55;15.35;;;;;;;26.97;42.09;152825.00;5091420;28;20642;-61
2022/12/31 09:45:54;;;;;;;17.88;16.42;;;;;;;26.74;42.81;152766.09;5091347;28;20188;-60
2022/12/31 09:48:50;;;;;;;18.05;16.17;;;;;;;26.67;43.98;152749.50;5077564;28;20285;-61
2022/12/31 09:51:31;;;;;;;21.00;16.15;;;;;;;27.01;43.41;152833.94;5090400;28;20180;-62
2022/12/31 09:54:28;;;;;;;17.75;16.08;;;;;;;27.50;42.28;152959.34;5091336;28;20589;-61
2022/12/31 09:57:14;;;;;;;16.48;14.98;;;;;;;26.58;42.73;152726.47;5091280;28;20180;-60
2022/12/31 09:59:46;;;;;;;17.08;15.35;;;;;;;27.55;42.26;152972.16;5091456;28;20654;-61
2022/12/31 10:02:21;;;;;;;15.88;14.63;;;;;;;27.58;41.37;152978.56;5091288;28;20180;-61
2022/12/31 10:05:01;;;;;;;17.45;15.60;;;;;;;28.00;40.73;153084.78;5091514;28;20184;-61
2022/12/31 10:07:43;;;;;;;15.85;14.85;;;;;;;28.00;40.67;153084.78;5091497;28;20599;-60
2022/12/31 10:10:16;;;;;;;15.23;14.13;;;;;;;28.67;39.46;153255.09;5091495;28;20199;-60
2022/12/31 10:13:18;;;;;;;13.60;12.50;;;;;;;29.34;38.24;153424.22;5091198;28;20199;-60
2022/12/31 10:16:18;;;;;;;14.95;13.70;;;;;;;29.51;37.54;153467.78;5095008;28;20237;-60
2022/12/31 10:19:00;;;;;;;13.70;12.93;;;;;;;29.78;37.04;153535.69;5095556;28;20184;-61
2022/12/31 10:21:46;;;;;;;15.73;14.18;;;;;;;29.60;36.93;153490.84;5094791;28;20203;-61
2022/12/31 10:24:34;;;;;;;13.98;13.05;;;;;;;29.68;36.83;153511.34;5094819;28;20196;-61
2022/12/31 10:27:20;;;;;;;14.23;13.25;;;;;;;30.29;36.22;153665.19;5095070;28;20195;-62
2022/12/31 10:29:48;;;;;;;13.93;13.00;;;;;;;29.48;37.30;153461.41;5095093;28;20285;-60
2022/12/31 10:32:21;;;;;;;13.82;13.05;;;;;;;29.09;37.83;153361.41;5094645;28;20195;-61
2022/12/31 10:35:00;;;;;;;14.55;13.68;;;;;;;29.11;37.81;153365.28;5094953;28;20626;-60
2022/12/31 10:37:32;;;;;;;15.25;13.93;;;;;;;28.80;38.35;153288.44;5095110;28;20196;-61
2022/12/31 10:40:25;;;;;;;13.48;12.65;;;;;;;28.57;38.71;153230.75;5094950;28;20290;-61
2022/12/31 10:43:34;;;;;;;13.32;12.43;;;;;;;28.59;38.25;153235.91;5094520;28;20199;-62
2022/12/31 10:46:27;;;;;;;13.00;11.85;;;;;;;28.57;37.84;153229.47;5094829;28;20249;-62
2022/12/31 10:49:26;;;;;;;14.25;12.35;;;;;;;27.76;39.63;153023.31;5086954;28;20207;-60
2022/12/31 10:52:31;;;;;;;12.88;11.75;;;;;;;28.46;38.25;153202.59;5055688;28;20224;-61
2022/12/31 10:55:30;;;;;;;16.17;12.73;;;;;;;28.85;38.37;153299.97;5094687;28;20560;-61
2022/12/31 10:58:16;;;;;;;13.88;12.98;;;;;;;29.50;37.23;153465.22;5094881;28;20184;-61
2022/12/31 11:00:53;;;;;;;12.57;11.85;;;;;;;29.84;37.09;153552.31;5094316;28;20207;-62
2022/12/31 11:04:19;;;;;;;13.07;12.10;;;;;;;30.67;35.71;153762.66;5095336;28;20554;-62
2022/12/31 11:07:24;;;;;;;13.00;12.30;;;;;;;30.08;36.24;153612.63;5095445;28;20192;-61
2022/12/31 11:10:27;;;;;;;15.05;13.10;;;;;;;29.84;36.14;153552.31;5077319;28;20199;-60
2022/12/31 11:13:28;;;;;;;13.30;12.32;;;;;;;29.35;36.46;153428.09;5092975;28;20555;-62
2022/12/31 11:16:10;;;;;;;12.27;11.52;;;;;;;30.03;35.59;153599.81;5095149;28;20190;-61
2022/12/31 11:18:50;;;;;;;12.13;11.52;;;;;;;29.98;35.31;153585.69;5095004;28;20192;-61
2022/12/31 11:21:27;;;;;;;13.00;11.90;;;;;;;29.64;35.28;153501.09;5094059;28;20235;-61
2022/12/31 11:24:03;;;;;;;14.52;12.63;;;;;;;29.81;36.08;153544.66;5094101;28;20184;-61
2022/12/31 11:26:42;;;;;;;13.20;12.43;;;;;;;29.73;36.01;153524.16;5093404;28;20184;-61
2022/12/31 11:29:35;;;;;;;13.70;12.45;;;;;;;29.59;36.54;153488.28;5092208;28;20227;-61
2022/12/31 11:32:22;;;;;;;13.88;12.63;;;;;;;29.46;36.86;153456.25;5093875;28;20180;-61
2022/12/31 11:35:08;;;;;;;13.38;12.40;;;;;;;28.90;37.29;153312.72;5093816;28;20646;-61
2022/12/31 11:37:45;;;;;;;12.07;11.02;;;;;;;28.42;37.68;153191.06;5092103;28;20196;-60
2022/12/31 11:40:33;;;;;;;11.93;11.18;;;;;;;26.98;40.17;152827.56;5093661;28;20666;-60
2022/12/31 11:43:04;;;;;;;11.57;10.98;;;;;;;24.86;44.28;152290.59;5093295;28;20184;-60
2022/12/31 11:45:57;;;;;;;12.40;11.20;;;;;;;23.49;48.59;151944.47;5093197;28;20190;-61
2022/12/31 11:48:31;;;;;;;10.57;9.98;;;;;;;22.28;53.42;151639.47;5093244;28;20210;-61
2022/12/31 11:51:28;;;;;;;12.23;11.20;;;;;;;21.12;60.33;151347.59;5093129;28;20180;-60
2022/12/31 11:54:24;;;;;;;10.67;9.77;;;;;;;20.17;65.72;151106.75;5093108;28;20184;-61